Observation data for Seminole on 08/13/2019      Previous  Date       Current Mesonet Observations  Soil Data  Daily Summary Page  Observations in Plain Language
KSM1 130500Z 35006KT 26/11 A2994 RMK A01 T02620111  RH  040%=      5-min Rain = 0
KSM1 130505Z 35006KT 26/11 A2994 RMK A01 T02610110  RH  040%=      5-min Rain = 0
KSM1 130510Z 34005KT 26/11 A2994 RMK A01 T02640112  RH  040%=      5-min Rain = 0
KSM1 130515Z 34006KT 27/11 A2994 RMK A01 T02690112  RH  039%=      5-min Rain = 0
KSM1 130520Z 34006KT 27/11 A2994 RMK A01 T02690113  RH  039%=      5-min Rain = 0
KSM1 130525Z 34006KT 27/11 A2994 RMK A01 T02680113  RH  040%=      5-min Rain = 0
KSM1 130530Z 33006KT 27/11 A2994 RMK A01 T02690114  RH  039%=      5-min Rain = 0
KSM1 130535Z 33005KT 27/12 A2994 RMK A01 T02670116  RH  041%=      5-min Rain = 0
KSM1 130540Z 33005KT 26/12 A2994 RMK A01 T02630118  RH  042%=      5-min Rain = 0
KSM1 130545Z 33005KT 26/12 A2994 RMK A01 T02600118  RH  043%=      5-min Rain = 0
KSM1 130550Z 33005KT 26/12 A2995 RMK A01 T02580118  RH  043%=      5-min Rain = 0
KSM1 130555Z 33004KT 26/12 A2994 RMK A01 T02580118  RH  043%=      5-min Rain = 0
KSM1 130600Z 33005KT 26/12 A2994 RMK A01 T02570119  RH  044%=      5-min Rain = 0
KSM1 130605Z 34006KT 26/12 A2995 RMK A01 T02570119  RH  044%=      5-min Rain = 0
KSM1 130610Z 35006KT 25/12 A2995 RMK A01 T02530119  RH  045%=      5-min Rain = 0
KSM1 130615Z 35006KT 25/12 A2995 RMK A01 T02500121  RH  046%=      5-min Rain = 0
KSM1 130620Z 35007KT 25/12 A2995 RMK A01 T02490122  RH  047%=      5-min Rain = 0
KSM1 130625Z 35008KT 25/12 A2995 RMK A01 T02530121  RH  046%=      5-min Rain = 0
KSM1 130630Z 34007KT 25/12 A2995 RMK A01 T02540121  RH  045%=      5-min Rain = 0
KSM1 130635Z 34007KT 26/12 A2995 RMK A01 T02580119  RH  044%=      5-min Rain = 0
KSM1 130640Z 34006KT 26/12 A2995 RMK A01 T02610120  RH  043%=      5-min Rain = 0
KSM1 130645Z 34006KT 26/12 A2995 RMK A01 T02610120  RH  043%=      5-min Rain = 0
KSM1 130650Z 33006KT 26/12 A2995 RMK A01 T02590121  RH  044%=      5-min Rain = 0
KSM1 130655Z 33006KT 26/12 A2995 RMK A01 T02570121  RH  044%=      5-min Rain = 0
KSM1 130700Z 34006KT 25/12 A2995 RMK A01 T02540121  RH  045%=      5-min Rain = 0
KSM1 130705Z 33006KT 25/12 A2995 RMK A01 T02530121  RH  046%=      5-min Rain = 0
KSM1 130710Z 34006KT 25/12 A2995 RMK A01 T02510122  RH  046%=      5-min Rain = 0
KSM1 130715Z 34006KT 25/12 A2995 RMK A01 T02500122  RH  047%=      5-min Rain = 0
KSM1 130720Z 34007KT 25/12 A2996 RMK A01 T02490122  RH  047%=      5-min Rain = 0
KSM1 130725Z 34007KT 25/12 A2995 RMK A01 T02500123  RH  047%=      5-min Rain = 0
KSM1 130730Z 34007KT 25/12 A2995 RMK A01 T02510123  RH  046%=      5-min Rain = 0
KSM1 130735Z 34008KT 25/12 A2996 RMK A01 T02530124  RH  046%=      5-min Rain = 0
KSM1 130740Z 35008KT 26/13 A2996 RMK A01 T02550125  RH  046%=      5-min Rain = 0
KSM1 130745Z 15008KT 26/13 A2998 RMK A01 T02570126  RH  046%=      5-min Rain = 0
KSM1 130750Z 16008G14KT 26/13 A2998 RMK A01 T02620125  RH  044%=      5-min Rain = 0
KSM1 130755Z 04006G13KT 27/13 A2999 RMK A01 T02740130  RH  043%=      5-min Rain = 0
KSM1 130800Z 07007KT 27/13 A2999 RMK A01 T02730132  RH  044%=      5-min Rain = 0
KSM1 130805Z 07006G12KT 27/14 A2999 RMK A01 T02730135  RH  044%=      5-min Rain = 0
KSM1 130810Z 06007KT 27/14 A2999 RMK A01 T02710137  RH  045%=      5-min Rain = 0
KSM1 130815Z 05006KT 26/14 A2999 RMK A01 T02640138  RH  048%=      5-min Rain = 0
KSM1 130820Z 03006KT 26/14 A2999 RMK A01 T02590138  RH  049%=      5-min Rain = 0
KSM1 130825Z 02007KT 25/14 A2998 RMK A01 T02540138  RH  051%=      5-min Rain = 0
KSM1 130830Z 01008KT 25/14 A2998 RMK A01 T02510138  RH  052%=      5-min Rain = 0
KSM1 130835Z 01007KT 25/14 A2998 RMK A01 T02480138  RH  053%=      5-min Rain = 0
KSM1 130840Z 00007KT 25/14 A2998 RMK A01 T02460139  RH  054%=      5-min Rain = 0
KSM1 130845Z 01008KT 25/14 A2998 RMK A01 T02450141  RH  054%=      5-min Rain = 0
KSM1 130850Z 01008KT 25/14 A2998 RMK A01 T02460141  RH  054%=      5-min Rain = 0
KSM1 130855Z 00006KT 25/14 A2998 RMK A01 T02450141  RH  055%=      5-min Rain = 0
KSM1 130900Z 36007KT 24/14 A2998 RMK A01 T02420143  RH  056%=      5-min Rain = 0
KSM1 130905Z 00006KT 24/14 A2998 RMK A01 T02400144  RH  057%=      5-min Rain = 0
KSM1 130910Z 00006KT 24/14 A2998 RMK A01 T02370144  RH  058%=      5-min Rain = 0
KSM1 130915Z 35005KT 24/14 A2998 RMK A01 T02350144  RH  059%=      5-min Rain = 0
KSM1 130920Z 34005KT 24/14 A2998 RMK A01 T02370144  RH  058%=      5-min Rain = 0
KSM1 130925Z 35006KT 24/14 A2998 RMK A01 T02380144  RH  058%=      5-min Rain = 0
KSM1 130930Z 34006KT 24/15 A2998 RMK A01 T02360145  RH  059%=      5-min Rain = 0
KSM1 130935Z 34005KT 24/15 A2998 RMK A01 T02370145  RH  059%=      5-min Rain = 0
KSM1 130940Z 34005KT 24/15 A2998 RMK A01 T02360145  RH  059%=      5-min Rain = 0
KSM1 130945Z 33004KT 24/15 A2998 RMK A01 T02360146  RH  059%=      5-min Rain = 0
KSM1 130950Z 33005KT 23/15 A2998 RMK A01 T02320146  RH  061%=      5-min Rain = 0
KSM1 130955Z 34004KT 23/15 A2999 RMK A01 T02290146  RH  062%=      5-min Rain = 0
KSM1 131000Z 34004KT 23/15 A2999 RMK A01 T02280146  RH  063%=      5-min Rain = 0
KSM1 131005Z 34004KT 23/15 A2999 RMK A01 T02260146  RH  063%=      5-min Rain = 0
KSM1 131010Z 34005KT 23/15 A2999 RMK A01 T02250146  RH  064%=      5-min Rain = 0
KSM1 131015Z 34005KT 23/15 A2998 RMK A01 T02260147  RH  064%=      5-min Rain = 0
KSM1 131020Z 34005KT 23/15 A2998 RMK A01 T02260148  RH  064%=      5-min Rain = 0
KSM1 131025Z 35006KT 23/15 A2998 RMK A01 T02260149  RH  064%=      5-min Rain = 0
KSM1 131030Z 34006KT 23/15 A2999 RMK A01 T02250149  RH  065%=      5-min Rain = 0
KSM1 131035Z 34006KT 23/15 A2999 RMK A01 T02260150  RH  065%=      5-min Rain = 0
KSM1 131040Z 34005KT 23/15 A2999 RMK A01 T02260150  RH  065%=      5-min Rain = 0
KSM1 131045Z 34006KT 23/15 A2999 RMK A01 T02250150  RH  065%=      5-min Rain = 0
KSM1 131050Z 34006KT 22/15 A2999 RMK A01 T02240151  RH  066%=      5-min Rain = 0
KSM1 131055Z 34007KT 22/15 A2999 RMK A01 T02240152  RH  067%=      5-min Rain = 0
KSM1 131100Z 34006KT 22/15 A30 RMK A01 T02240153  RH  067%=      5-min Rain = 0
KSM1 131105Z 35007KT 22/16 A30 RMK A01 T02240155  RH  068%=      5-min Rain = 0
KSM1 131110Z 35006KT 22/16 A30 RMK A01 T02240155  RH  068%=      5-min Rain = 0
KSM1 131115Z 35006KT 22/16 A30 RMK A01 T02230155  RH  069%=      5-min Rain = 0
KSM1 131120Z 00005KT 22/16 A30 RMK A01 T02200156  RH  070%=      5-min Rain = 0
KSM1 131125Z 00006KT 22/16 A3001 RMK A01 T02170157  RH  072%=      5-min Rain = 0
KSM1 131130Z 00006KT 22/16 A3001 RMK A01 T02150157  RH  073%=      5-min Rain = 0
KSM1 131135Z 00006KT 21/16 A3001 RMK A01 T02140157  RH  074%=      5-min Rain = 0
KSM1 131140Z 00007KT 21/16 A3001 RMK A01 T02140158  RH  074%=      5-min Rain = 0
KSM1 131145Z 00007KT 21/16 A3001 RMK A01 T02130158  RH  074%=      5-min Rain = 0
KSM1 131150Z 01008KT 21/16 A3001 RMK A01 T02130159  RH  075%=      5-min Rain = 0
KSM1 131155Z 00008KT 21/16 A3002 RMK A01 T02120159  RH  075%=      5-min Rain = 0
KSM1 131200Z 36008KT 21/16 A3002 RMK A01 T02120159  RH  075%=      5-min Rain = 0
KSM1 131205Z 35008KT 21/16 A3002 RMK A01 T02110159  RH  076%=      5-min Rain = 0
KSM1 131210Z 35009KT 21/16 A3002 RMK A01 T02110160  RH  076%=      5-min Rain = 0
KSM1 131215Z 35009KT 21/16 A3002 RMK A01 T02120161  RH  076%=      5-min Rain = 0
KSM1 131220Z 35010KT 21/16 A3002 RMK A01 T02120161  RH  076%=      5-min Rain = 0
KSM1 131225Z 36010KT 21/16 A3002 RMK A01 T02130162  RH  076%=      5-min Rain = 0
KSM1 131230Z 36010KT 21/16 A3002 RMK A01 T02130163  RH  077%=      5-min Rain = 0
KSM1 131235Z 00010KT 21/16 A3002 RMK A01 T02130163  RH  077%=      5-min Rain = 0
KSM1 131240Z 36010KT 21/16 A3002 RMK A01 T02130164  RH  077%=      5-min Rain = 0
KSM1 131245Z 36011KT 21/17 A3002 RMK A01 T02140165  RH  077%=      5-min Rain = 0
KSM1 131250Z 36010KT 22/17 A3002 RMK A01 T02150166  RH  077%=      5-min Rain = 0
KSM1 131255Z 36010KT 22/17 A3003 RMK A01 T02160166  RH  077%=      5-min Rain = 0
KSM1 131300Z 36010KT 22/17 A3003 RMK A01 T02170167  RH  077%=      5-min Rain = 0
KSM1 131305Z 36010KT 22/17 A3003 RMK A01 T02180167  RH  077%=      5-min Rain = 0
KSM1 131310Z 36011KT 22/17 A3003 RMK A01 T02190168  RH  076%=      5-min Rain = 0
KSM1 131315Z 00010KT 22/17 A3003 RMK A01 T02210168  RH  076%=      5-min Rain = 0
KSM1 131320Z 00012KT 22/17 A3004 RMK A01 T02230169  RH  075%=      5-min Rain = 0
KSM1 131325Z 00012KT 22/17 A3004 RMK A01 T02240169  RH  075%=      5-min Rain = 0
KSM1 131330Z 00012KT 23/17 A3004 RMK A01 T02260169  RH  074%=      5-min Rain = 0
KSM1 131335Z 01011KT 22/17 A3004 RMK A01 T02240169  RH  075%=      5-min Rain = 0
KSM1 131340Z 00011KT 22/17 A3004 RMK A01 T02240170  RH  075%=      5-min Rain = 0
KSM1 131345Z 01012KT 22/17 A3004 RMK A01 T02240170  RH  075%=      5-min Rain = 0
KSM1 131350Z 01011KT 23/17 A3004 RMK A01 T02260171  RH  075%=      5-min Rain = 0
KSM1 131355Z 01011G16KT 23/17 A3004 RMK A01 T02300171  RH  073%=      5-min Rain = 0
KSM1 131400Z 01011KT 24/17 A3004 RMK A01 T02350172  RH  071%=      5-min Rain = 0
KSM1 131405Z 00011KT 24/17 A3004 RMK A01 T02380172  RH  070%=      5-min Rain = 0
KSM1 131410Z 01010KT 24/17 A3004 RMK A01 T02380172  RH  070%=      5-min Rain = 0
KSM1 131415Z 01011KT 24/17 A3004 RMK A01 T02400172  RH  069%=      5-min Rain = 0
KSM1 131420Z 01011KT 24/17 A3004 RMK A01 T02400172  RH  069%=      5-min Rain = 0
KSM1 131425Z 01012KT 24/17 A3005 RMK A01 T02410171  RH  068%=      5-min Rain = 0
KSM1 131430Z 02012KT 24/17 A3005 RMK A01 T02410171  RH  069%=      5-min Rain = 0
KSM1 131435Z 01013KT 24/17 A3005 RMK A01 T02410171  RH  068%=      5-min Rain = 0
KSM1 131440Z 01012KT 24/17 A3005 RMK A01 T02440172  RH  067%=      5-min Rain = 0
KSM1 131445Z 01013KT 25/17 A3005 RMK A01 T02460172  RH  067%=      5-min Rain = 0
KSM1 131450Z 01013KT 25/17 A3005 RMK A01 T02470172  RH  066%=      5-min Rain = 0
KSM1 131455Z 01013KT 25/17 A3005 RMK A01 T02500172  RH  065%=      5-min Rain = 0
KSM1 131500Z 01011KT 25/17 A3005 RMK A01 T02530173  RH  064%=      5-min Rain = 0
KSM1 131505Z 02011KT 26/17 A3005 RMK A01 T02560174  RH  064%=      5-min Rain = 0
KSM1 131510Z 01011KT 26/17 A3006 RMK A01 T02580173  RH  062%=      5-min Rain = 0
KSM1 131515Z 02013KT 26/17 A3006 RMK A01 T02590173  RH  062%=      5-min Rain = 0
KSM1 131520Z 01011KT 26/17 A3006 RMK A01 T02620173  RH  061%=      5-min Rain = 0
KSM1 131525Z 01012KT 27/17 A3006 RMK A01 T02650174  RH  060%=      5-min Rain = 0
KSM1 131530Z 02013KT 27/17 A3006 RMK A01 T02660173  RH  060%=      5-min Rain = 0
KSM1 131535Z 01013KT 27/17 A3006 RMK A01 T02690173  RH  059%=      5-min Rain = 0
KSM1 131540Z 01012KT 27/17 A3006 RMK A01 T02720173  RH  057%=      5-min Rain = 0
KSM1 131545Z 00012G17KT 28/17 A3006 RMK A01 T02750173  RH  057%=      5-min Rain = 0
KSM1 131550Z 02012KT 28/17 A3006 RMK A01 T02750174  RH  057%=      5-min Rain = 0
KSM1 131555Z 02012KT 28/17 A3006 RMK A01 T02760172  RH  056%=      5-min Rain = 0
KSM1 131600Z 02012KT 28/17 A3007 RMK A01 T02770173  RH  056%=      5-min Rain = 0
KSM1 131605Z 01012KT 28/17 A3007 RMK A01 T02810172  RH  054%=      5-min Rain = 0
KSM1 131610Z 01011G16KT 28/17 A3007 RMK A01 T02820172  RH  054%=      5-min Rain = 0
KSM1 131615Z 02011KT 29/17 A3007 RMK A01 T02850172  RH  053%=      5-min Rain = 0
KSM1 131620Z 02012KT 29/17 A3007 RMK A01 T02870171  RH  052%=      5-min Rain = 0
KSM1 131625Z 03011G16KT 29/17 A3007 RMK A01 T02860171  RH  052%=      5-min Rain = 0
KSM1 131630Z 02011KT 29/17 A3007 RMK A01 T02890171  RH  052%=      5-min Rain = 0
KSM1 131635Z 02010KT 30/17 A3007 RMK A01 T02950171  RH  050%=      5-min Rain = 0
KSM1 131640Z 03011KT 30/17 A3007 RMK A01 T02970170  RH  049%=      5-min Rain = 0
KSM1 131645Z 02010G15KT 30/17 A3007 RMK A01 T02990169  RH  048%=      5-min Rain = 0
KSM1 131650Z 02011G16KT 30/17 A3007 RMK A01 T03020169  RH  047%=      5-min Rain = 0
KSM1 131655Z 01011G16KT 30/17 A3007 RMK A01 T03030168  RH  047%=      5-min Rain = 0
KSM1 131700Z 00011KT 30/17 A3007 RMK A01 T03030169  RH  047%=      5-min Rain = 0
KSM1 131705Z 02011G20KT 30/17 A3007 RMK A01 T03040166  RH  046%=      5-min Rain = 0
KSM1 131710Z 02010KT 31/17 A3008 RMK A01 T03060166  RH  045%=      5-min Rain = 0
KSM1 131715Z 01012G17KT 31/16 A3008 RMK A01 T03070164  RH  044%=      5-min Rain = 0
KSM1 131720Z 02012KT 31/16 A3008 RMK A01 T03050163  RH  044%=      5-min Rain = 0
KSM1 131725Z 03011G16KT 31/17 A3007 RMK A01 T03090165  RH  044%=      5-min Rain = 0
KSM1 131730Z 01012KT 31/16 A3007 RMK A01 T03110164  RH  043%=      5-min Rain = 0
KSM1 131735Z 02012G17KT 32/16 A3007 RMK A01 T03160163  RH  042%=      5-min Rain = 0
KSM1 131740Z 01011G18KT 31/16 A3007 RMK A01 T03140164  RH  043%=      5-min Rain = 0
KSM1 131745Z 04014G21KT 32/16 A3007 RMK A01 T03180159  RH  040%=      5-min Rain = 0
KSM1 131750Z 03014G19KT 32/16 A3007 RMK A01 T03170160  RH  041%=      5-min Rain = 0
KSM1 131755Z 04013G18KT 32/16 A3007 RMK A01 T03150159  RH  041%=      5-min Rain = 0
KSM1 131800Z 03011G16KT 32/16 A3007 RMK A01 T03170159  RH  040%=      5-min Rain = 0
KSM1 131805Z 02013G19KT 32/16 A3007 RMK A01 T03190159  RH  040%=      5-min Rain = 0
KSM1 131810Z 03012G18KT 32/16 A3007 RMK A01 T03210158  RH  039%=      5-min Rain = 0
KSM1 131815Z 03013G18KT 32/16 A3007 RMK A01 T03210157  RH  039%=      5-min Rain = 0
KSM1 131820Z 02014G19KT 32/15 A3007 RMK A01 T03200154  RH  038%=      5-min Rain = 0
KSM1 131825Z 03014G20KT 32/16 A3007 RMK A01 T03180156  RH  039%=      5-min Rain = 0
KSM1 131830Z 02015G20KT 32/16 A3007 RMK A01 T03190155  RH  039%=      5-min Rain = 0
KSM1 131835Z 03012G18KT 32/16 A3008 RMK A01 T03170158  RH  040%=      5-min Rain = 0
KSM1 131840Z 03013G18KT 32/16 A3007 RMK A01 T03200156  RH  039%=      5-min Rain = 0
KSM1 131845Z 03013G19KT 32/16 A3007 RMK A01 T03220157  RH  039%=      5-min Rain = 0
KSM1 131850Z 03012G19KT 32/16 A3007 RMK A01 T03230157  RH  039%=      5-min Rain = 0
KSM1 131855Z 03013G18KT 33/15 A3007 RMK A01 T03260154  RH  037%=      5-min Rain = 0
KSM1 131900Z 03013KT 33/16 A3007 RMK A01 T03290155  RH  037%=      5-min Rain = 0
KSM1 131905Z 03013KT 33/15 A3007 RMK A01 T03260154  RH  037%=      5-min Rain = 0
KSM1 131910Z 02012KT 32/16 A3007 RMK A01 T03230156  RH  038%=      5-min Rain = 0
KSM1 131915Z 03012G17KT 33/16 A3007 RMK A01 T03270159  RH  038%=      5-min Rain = 0
KSM1 131920Z 04012G18KT 33/16 A3006 RMK A01 T03310159  RH  037%=      5-min Rain = 0
KSM1 131925Z 04014KT 33/15 A3006 RMK A01 T03320153  RH  036%=      5-min Rain = 0
KSM1 131930Z 05012KT 33/16 A3006 RMK A01 T03320156  RH  036%=      5-min Rain = 0
KSM1 131935Z 04014KT 33/16 A3006 RMK A01 T03290156  RH  037%=      5-min Rain = 0
KSM1 131940Z 04014KT 33/16 A3006 RMK A01 T03290156  RH  037%=      5-min Rain = 0
KSM1 131945Z 05013G18KT 33/16 A3006 RMK A01 T03320156  RH  036%=      5-min Rain = 0
KSM1 131950Z 03012G17KT 33/16 A3006 RMK A01 T03340155  RH  036%=      5-min Rain = 0
KSM1 131955Z 04012G20KT 33/16 A3006 RMK A01 T03340156  RH  036%=      5-min Rain = 0
KSM1 132000Z 05013G19KT 34/15 A3006 RMK A01 T03350153  RH  035%=      5-min Rain = 0
KSM1 132005Z 06012G17KT 33/15 A3006 RMK A01 T03270153  RH  037%=      5-min Rain = 0
KSM1 132010Z 06012KT 33/15 A3006 RMK A01 T03290154  RH  037%=      5-min Rain = 0
KSM1 132015Z 04011G16KT 33/15 A3005 RMK A01 T03320153  RH  036%=      5-min Rain = 0
KSM1 132020Z 04011G19KT 34/15 A3005 RMK A01 T03370154  RH  035%=      5-min Rain = 0
KSM1 132025Z 05011KT 34/15 A3005 RMK A01 T03380153  RH  035%=      5-min Rain = 0
KSM1 132030Z 04012G17KT 34/15 A3005 RMK A01 T03370152  RH  034%=      5-min Rain = 0
KSM1 132035Z 04012G17KT 34/15 A3004 RMK A01 T03380153  RH  034%=      5-min Rain = 0
KSM1 132040Z 04012KT 34/15 A3004 RMK A01 T03430153  RH  034%=      5-min Rain = 0
KSM1 132045Z 05014G21KT 35/15 A3004 RMK A01 T03450151  RH  033%=      5-min Rain = 0
KSM1 132050Z 07013G19KT 35/15 A3004 RMK A01 T03450150  RH  033%=      5-min Rain = 0
KSM1 132055Z 06013KT 34/15 A3004 RMK A01 T03440151  RH  033%=      5-min Rain = 0
KSM1 132100Z 05014G19KT 35/15 A3004 RMK A01 T03470149  RH  032%=      5-min Rain = 0
KSM1 132105Z 06012G17KT 34/15 A3004 RMK A01 T03440150  RH  033%=      5-min Rain = 0
KSM1 132110Z 06012KT 34/15 A3004 RMK A01 T03410148  RH  033%=      5-min Rain = 0
KSM1 132115Z 04013G18KT 34/15 A3003 RMK A01 T03420148  RH  033%=      5-min Rain = 0
KSM1 132120Z 04012KT 34/15 A3003 RMK A01 T03440146  RH  032%=      5-min Rain = 0
KSM1 132125Z 05013G19KT 35/15 A3003 RMK A01 T03490147  RH  031%=      5-min Rain = 0
KSM1 132130Z 06012G17KT 34/15 A3003 RMK A01 T03440148  RH  032%=      5-min Rain = 0
KSM1 132135Z 04013KT 35/15 A3002 RMK A01 T03470145  RH  031%=      5-min Rain = 0
KSM1 132140Z 06013KT 34/14 A3002 RMK A01 T03420143  RH  032%=      5-min Rain = 0
KSM1 132145Z 08011G16KT 34/14 A3003 RMK A01 T03350142  RH  033%=      5-min Rain = 0
KSM1 132150Z 06009G15KT 34/14 A3002 RMK A01 T03360142  RH  032%=      5-min Rain = 0
KSM1 132155Z 06012G17KT 34/14 A3002 RMK A01 T03380144  RH  032%=      5-min Rain = 0
KSM1 132200Z 05010KT 34/14 A3002 RMK A01 T03380142  RH  032%=      5-min Rain = 0
KSM1 132205Z 06011G16KT 34/15 A3002 RMK A01 T03400145  RH  032%=      5-min Rain = 0
KSM1 132210Z 06011KT 34/15 A3001 RMK A01 T03440146  RH  032%=      5-min Rain = 0
KSM1 132215Z 06013G18KT 35/15 A3001 RMK A01 T03490145  RH  031%=      5-min Rain = 0
KSM1 132220Z 05013KT 35/14 A3001 RMK A01 T03510142  RH  030%=      5-min Rain = 0
KSM1 132225Z 06011G16KT 35/14 A3001 RMK A01 T03480141  RH  030%=      5-min Rain = 0
KSM1 132230Z 07011G16KT 35/14 A30 RMK A01 T03460143  RH  031%=      5-min Rain = 0
KSM1 132235Z 05012G17KT 35/15 A3001 RMK A01 T03480145  RH  031%=      5-min Rain = 0
KSM1 132240Z 06012G17KT 35/14 A3001 RMK A01 T03480143  RH  031%=      5-min Rain = 0
KSM1 132245Z 05012G17KT 35/14 A3001 RMK A01 T03460139  RH  030%=      5-min Rain = 0
KSM1 132250Z 06009G14KT 35/14 A3001 RMK A01 T03470139  RH  030%=      5-min Rain = 0
KSM1 132255Z 06011G16KT 35/14 A3001 RMK A01 T03450141  RH  031%=      5-min Rain = 0
KSM1 132300Z 05008G13KT 35/14 A3001 RMK A01 T03450141  RH  031%=      5-min Rain = 0
KSM1 132305Z 04009G15KT 35/14 A3001 RMK A01 T03480138  RH  029%=      5-min Rain = 0
KSM1 132310Z 06010G15KT 35/14 A3001 RMK A01 T03490140  RH  030%=      5-min Rain = 0
KSM1 132315Z 06010G16KT 35/14 A3001 RMK A01 T03460139  RH  030%=      5-min Rain = 0
KSM1 132320Z 06009G14KT 34/14 A3001 RMK A01 T03430139  RH  031%=      5-min Rain = 0
KSM1 132325Z 05012G17KT 34/14 A3001 RMK A01 T03440140  RH  031%=      5-min Rain = 0
KSM1 132330Z 06011G18KT 35/14 A3001 RMK A01 T03450138  RH  030%=      5-min Rain = 0
KSM1 132335Z 05011KT 35/14 A3001 RMK A01 T03450140  RH  030%=      5-min Rain = 0
KSM1 132340Z 04009KT 34/14 A3001 RMK A01 T03440136  RH  030%=      5-min Rain = 0
KSM1 132345Z 06012KT 34/14 A3001 RMK A01 T03430139  RH  031%=      5-min Rain = 0
KSM1 132350Z 06010KT 34/14 A3001 RMK A01 T03420138  RH  031%=      5-min Rain = 0
KSM1 132355Z 06009KT 34/14 A3001 RMK A01 T03410140  RH  031%=      5-min Rain = 0
KSM1 140000Z 07011KT 34/14 A3001 RMK A01 T03410142  RH  032%=      5-min Rain = 0
KSM1 140005Z 07011KT 34/14 A3001 RMK A01 T03410141  RH  031%=      5-min Rain = 0
KSM1 140010Z 06012KT 34/14 A3001 RMK A01 T03400142  RH  032%=      5-min Rain = 0
KSM1 140015Z 06011G17KT 34/14 A3001 RMK A01 T03380141  RH  032%=      5-min Rain = 0
KSM1 140020Z 07011G17KT 34/14 A3001 RMK A01 T03380142  RH  032%=      5-min Rain = 0
KSM1 140025Z 05010KT 34/14 A3002 RMK A01 T03370143  RH  032%=      5-min Rain = 0
KSM1 140030Z 07011KT 34/14 A3002 RMK A01 T03370142  RH  032%=      5-min Rain = 0
KSM1 140035Z 06010KT 34/14 A3002 RMK A01 T03350143  RH  033%=      5-min Rain = 0
KSM1 140040Z 06011KT 33/14 A3002 RMK A01 T03320140  RH  033%=      5-min Rain = 0
KSM1 140045Z 06009G14KT 33/14 A3002 RMK A01 T03290141  RH  034%=      5-min Rain = 0
KSM1 140050Z 06010KT 33/14 A3002 RMK A01 T03270141  RH  034%=      5-min Rain = 0
KSM1 140055Z 06009KT 33/14 A3002 RMK A01 T03250141  RH  034%=      5-min Rain = 0
KSM1 140100Z 06009KT 32/14 A3002 RMK A01 T03230141  RH  035%=      5-min Rain = 0
KSM1 140105Z 06008KT 32/14 A3002 RMK A01 T03220143  RH  035%=      5-min Rain = 0
KSM1 140110Z 06007KT 32/14 A3002 RMK A01 T03190144  RH  036%=      5-min Rain = 0
KSM1 140115Z 05007KT 32/15 A3003 RMK A01 T03170145  RH  037%=      5-min Rain = 0
KSM1 140120Z 05007KT 32/15 A3003 RMK A01 T03160145  RH  037%=      5-min Rain = 0
KSM1 140125Z 04007KT 32/15 A3003 RMK A01 T03150145  RH  037%=      5-min Rain = 0
KSM1 140130Z 05007KT 31/14 A3004 RMK A01 T03140144  RH  037%=      5-min Rain = 0
KSM1 140135Z 04006KT 31/14 A3004 RMK A01 T03130144  RH  037%=      5-min Rain = 0
KSM1 140140Z 04006KT 31/14 A3004 RMK A01 T03110144  RH  038%=      5-min Rain = 0
KSM1 140145Z 04006KT 31/14 A3004 RMK A01 T03090144  RH  038%=      5-min Rain = 0
KSM1 140150Z 04006KT 31/14 A3004 RMK A01 T03080144  RH  039%=      5-min Rain = 0
KSM1 140155Z 04006KT 31/15 A3004 RMK A01 T03060145  RH  039%=      5-min Rain = 0
KSM1 140200Z 04006KT 30/15 A3004 RMK A01 T03040145  RH  040%=      5-min Rain = 0
KSM1 140205Z 03006KT 30/15 A3004 RMK A01 T03020146  RH  040%=      5-min Rain = 0
KSM1 140210Z 03006KT 30/15 A3004 RMK A01 T02990147  RH  041%=      5-min Rain = 0
KSM1 140215Z 03007KT 30/15 A3005 RMK A01 T02970148  RH  042%=      5-min Rain = 0
KSM1 140220Z 04007KT 30/15 A3005 RMK A01 T02960149  RH  043%=      5-min Rain = 0
KSM1 140225Z 04007KT 30/15 A3005 RMK A01 T02960150  RH  043%=      5-min Rain = 0
KSM1 140230Z 05007KT 29/15 A3005 RMK A01 T02940151  RH  044%=      5-min Rain = 0
KSM1 140235Z 05008KT 30/15 A3005 RMK A01 T02960151  RH  043%=      5-min Rain = 0
KSM1 140240Z 05008KT 30/15 A3005 RMK A01 T02970152  RH  043%=      5-min Rain = 0
KSM1 140245Z 05008KT 30/15 A3005 RMK A01 T02970153  RH  044%=      5-min Rain = 0
KSM1 140250Z 05008KT 30/15 A3005 RMK A01 T02970154  RH  044%=      5-min Rain = 0
KSM1 140255Z 05008KT 30/15 A3006 RMK A01 T02960154  RH  044%=      5-min Rain = 0
KSM1 140300Z 05008KT 30/15 A3006 RMK A01 T02970154  RH  044%=      5-min Rain = 0
KSM1 140305Z 05009KT 30/15 A3006 RMK A01 T02960154  RH  044%=      5-min Rain = 0
KSM1 140310Z 06010KT 30/15 A3007 RMK A01 T02970154  RH  044%=      5-min Rain = 0
KSM1 140315Z 06010KT 30/15 A3007 RMK A01 T02980154  RH  044%=      5-min Rain = 0
KSM1 140320Z 06011KT 30/15 A3008 RMK A01 T02980154  RH  044%=      5-min Rain = 0
KSM1 140325Z 06012KT 30/16 A3008 RMK A01 T02980155  RH  044%=      5-min Rain = 0
KSM1 140330Z 08013G18KT 30/15 A3008 RMK A01 T02990154  RH  043%=      5-min Rain = 0
KSM1 140335Z 08013G19KT 30/15 A3008 RMK A01 T03000154  RH  043%=      5-min Rain = 0
KSM1 140340Z 08011KT 30/15 A3009 RMK A01 T02990154  RH  043%=      5-min Rain = 0
KSM1 140345Z 08010KT 30/15 A3009 RMK A01 T02970154  RH  044%=      5-min Rain = 0
KSM1 140350Z 09010KT 30/15 A3009 RMK A01 T02950154  RH  044%=      5-min Rain = 0
KSM1 140355Z 10011KT 29/15 A3009 RMK A01 T02940152  RH  044%=      5-min Rain = 0
KSM1 140400Z 11010KT 29/15 A301 RMK A01 T02940149  RH  043%=      5-min Rain = 0
KSM1 140405Z 11009KT 29/15 A301 RMK A01 T02930149  RH  043%=      5-min Rain = 0
KSM1 140410Z 10007KT 29/15 A301 RMK A01 T02910149  RH  044%=      5-min Rain = 0
KSM1 140415Z 09006KT 29/15 A301 RMK A01 T02870152  RH  046%=      5-min Rain = 0
KSM1 140420Z 09006KT 28/15 A301 RMK A01 T02830152  RH  047%=      5-min Rain = 0
KSM1 140425Z 08006KT 28/15 A301 RMK A01 T02810151  RH  047%=      5-min Rain = 0
KSM1 140430Z 09007KT 28/15 A301 RMK A01 T02800152  RH  048%=      5-min Rain = 0
KSM1 140435Z 09007KT 28/15 A301 RMK A01 T02770154  RH  049%=      5-min Rain = 0
KSM1 140440Z 08006KT 28/15 A301 RMK A01 T02750154  RH  050%=      5-min Rain = 0
KSM1 140445Z 08005KT 27/15 A301 RMK A01 T02740154  RH  050%=      5-min Rain = 0
KSM1 140450Z 07006KT 27/15 A301 RMK A01 T02720154  RH  051%=      5-min Rain = 0
KSM1 140455Z 07005KT 27/15 A301 RMK A01 T02700154  RH  051%=      5-min Rain = 0

Page generated in 0.0101 seconds.